Time;durP1;ratioP1;P1;durP2;ratioP2;P2;SDS_P1;SDS_P2;PMS_P1;PMS_P2;Temp;Humidity;BMP_temperature;BMP_pressure;BME280_temperature;BME280_humidity;BME280_pressure;Samples;Min_cycle;Max_cycle;Signal;HPM_P1;HPM_P2
2022/07/19 00:00:02;;;;;;;19.88;17.85;;;17.00;1.00;;;;;;5051752;28;20044;-74
2022/07/19 00:02:28;;;;;;;20.88;18.52;;;17.00;1.00;;;;;;5038325;28;20017;-74
2022/07/19 00:04:53;;;;;;;21.25;18.67;;;16.90;1.00;;;;;;5063938;28;20021;-74
2022/07/19 00:07:19;;;;;;;19.75;17.55;;;16.90;1.00;;;;;;5057732;28;20024;-74
2022/07/19 00:09:44;;;;;;;19.45;17.30;;;16.70;1.00;;;;;;5060324;28;20370;-74
2022/07/19 00:12:12;;;;;;;22.88;19.08;;;16.60;1.00;;;;;;5053766;28;20053;-74
2022/07/19 00:14:38;;;;;;;21.70;18.92;;;16.60;1.00;;;;;;5063603;28;20017;-74
2022/07/19 00:17:03;;;;;;;21.00;18.75;;;16.60;1.00;;;;;;5051653;28;20443;-74
2022/07/19 00:19:29;;;;;;;20.50;18.23;;;16.70;5.60;;;;;;5057763;28;20038;-74
2022/07/19 00:21:54;;;;;;;18.85;16.83;;;16.60;1.00;;;;;;5059376;28;20029;-74
2022/07/19 00:24:20;;;;;;;16.63;14.20;;;16.40;1.00;;;;;;5066913;28;20067;-74
2022/07/19 00:26:45;;;;;;;20.02;16.92;;;16.40;1.00;;;;;;5055214;28;20096;-73
2022/07/19 00:29:11;;;;;;;19.40;17.35;;;16.30;1.00;;;;;;5069329;28;20052;-74
2022/07/19 00:31:36;;;;;;;20.52;17.42;;;16.30;1.00;;;;;;5061762;28;20055;-74
2022/07/19 00:34:02;;;;;;;20.25;17.00;;;16.40;4.20;;;;;;5064723;28;20057;-74
2022/07/19 00:36:28;;;;;;;23.63;18.08;;;16.60;2.70;;;;;;5052981;28;20039;-74
2022/07/19 00:38:53;;;;;;;20.13;15.63;;;16.40;1.00;;;;;;5043123;28;20032;-74
2022/07/19 00:41:19;;;;;;;20.60;16.67;;;16.30;1.00;;;;;;5053559;28;20032;-74
2022/07/19 00:43:45;;;;;;;20.95;18.77;;;16.20;1.00;;;;;;5061483;28;20100;-74
2022/07/19 00:46:18;;;;;;;18.83;15.95;;;16.30;8.40;;;;;;5074827;28;20024;-74
2022/07/19 00:48:44;;;;;;;20.88;16.90;;;16.30;1.00;;;;;;5057802;28;20063;-74
2022/07/19 00:51:12;;;;;;;19.98;17.50;;;16.20;1.00;;;;;;5054771;28;20408;-73
2022/07/19 00:53:39;;;;;;;16.73;15.02;;;16.10;18.30;;;;;;5054915;28;20021;-73
2022/07/19 00:56:06;;;;;;;23.27;18.38;;;16.10;1.00;;;;;;5054624;28;20029;-74
2022/07/19 00:58:33;;;;;;;21.25;17.15;;;16.10;33.60;;;;;;5054568;28;20479;-74
2022/07/19 01:01:00;;;;;;;19.80;16.40;;;16.10;24.40;;;;;;5054639;28;20043;-73
2022/07/19 01:03:26;;;;;;;20.80;18.58;;;16.00;4.10;;;;;;5054591;28;20032;-74
2022/07/19 01:05:52;;;;;;;20.17;17.95;;;16.00;22.30;;;;;;5054615;28;20100;-74
2022/07/19 01:08:18;;;;;;;22.13;17.48;;;15.90;21.20;;;;;;5052997;28;20041;-73
2022/07/19 01:10:43;;;;;;;19.15;17.00;;;16.00;16.30;;;;;;5054321;28;20036;-73
2022/07/19 01:13:12;;;;;;;18.25;16.35;;;16.00;3.10;;;;;;5054451;28;20100;-73
2022/07/19 01:15:39;;;;;;;20.67;18.48;;;16.10;22.80;;;;;;5054341;28;20032;-74
2022/07/19 01:18:05;;;;;;;18.30;15.80;;;16.10;23.70;;;;;;5054390;28;20094;-73
2022/07/19 01:20:30;;;;;;;20.88;17.15;;;15.90;1.00;;;;;;5068180;28;20052;-73
2022/07/19 01:22:56;;;;;;;19.95;16.98;;;15.80;1.00;;;;;;5054240;28;20421;-74
2022/07/19 01:25:23;;;;;;;19.92;17.52;;;15.70;1.00;;;;;;5054163;28;20476;-73
2022/07/19 01:27:49;;;;;;;19.98;17.42;;;15.70;1.00;;;;;;5054193;28;20108;-74
2022/07/19 01:30:17;;;;;;;19.95;17.58;;;15.70;28.80;;;;;;5054144;28;20108;-74
2022/07/19 01:32:43;;;;;;;19.08;17.08;;;15.80;26.80;;;;;;5053647;28;20025;-73
2022/07/19 01:35:09;;;;;;;19.00;16.02;;;15.80;24.60;;;;;;5053620;28;20075;-74
2022/07/19 01:37:36;;;;;;;21.65;16.13;;;15.80;18.60;;;;;;5051617;28;20384;-73
2022/07/19 01:40:04;;;;;;;17.08;15.32;;;15.90;20.70;;;;;;5040658;28;20122;-73
2022/07/19 01:42:30;;;;;;;16.45;14.75;;;15.80;1.00;;;;;;5048126;28;20104;-74
2022/07/19 01:44:56;;;;;;;17.45;15.57;;;15.70;1.00;;;;;;5053921;28;20417;-74
2022/07/19 01:47:21;;;;;;;17.00;15.23;;;15.80;14.50;;;;;;5053717;28;20660;-74
2022/07/19 01:49:47;;;;;;;16.65;14.75;;;16.00;10.10;;;;;;5053814;28;20060;-73
2022/07/19 01:52:12;;;;;;;16.70;14.43;;;16.00;1.00;;;;;;5053688;28;20358;-74
2022/07/19 01:54:38;;;;;;;14.68;13.13;;;15.90;1.00;;;;;;5053656;28;20023;-73
2022/07/19 01:57:04;;;;;;;16.58;14.02;;;15.90;1.00;;;;;;5053533;28;20096;-74
2022/07/19 01:59:29;;;;;;;14.40;12.80;;;15.90;1.00;;;;;;5053577;28;20033;-73
2022/07/19 02:01:55;;;;;;;14.95;13.30;;;15.80;1.00;;;;;;5053374;28;20071;-73
2022/07/19 02:04:20;;;;;;;14.57;12.75;;;15.90;1.00;;;;;;5053464;28;20025;-74
2022/07/19 02:06:46;;;;;;;13.85;12.43;;;15.70;1.00;;;;;;5053370;28;20021;-73
2022/07/19 02:09:11;;;;;;;16.95;13.02;;;15.70;1.00;;;;;;5053437;28;20025;-73
2022/07/19 02:11:37;;;;;;;13.38;11.98;;;15.60;1.00;;;;;;5053144;28;20021;-73
2022/07/19 02:14:09;;;;;;;16.25;13.25;;;15.50;1.00;;;;;;5053262;28;20021;-73
2022/07/19 02:16:36;;;;;;;13.98;12.40;;;15.40;1.00;;;;;;5053282;28;20048;-73
2022/07/19 02:19:03;;;;;;;17.75;13.93;;;15.40;1.00;;;;;;5039320;28;20024;-74
2022/07/19 02:21:29;;;;;;;15.45;12.45;;;15.40;4.70;;;;;;5053151;28;20116;-73
2022/07/19 02:23:54;;;;;;;16.90;12.73;;;15.80;1.00;;;;;;5053065;28;20124;-73
2022/07/19 02:26:21;;;;;;;14.23;12.82;;;15.80;1.00;;;;;;5053108;28;20029;-74
2022/07/19 02:28:47;;;;;;;15.02;12.13;;;15.90;1.00;;;;;;5052934;28;20025;-74
2022/07/19 02:31:12;;;;;;;14.30;11.90;;;15.90;1.00;;;;;;5052977;28;20021;-74
2022/07/19 02:33:38;;;;;;;13.15;11.15;;;15.80;1.00;;;;;;5052494;28;20049;-73
2022/07/19 02:36:04;;;;;;;13.80;11.63;;;15.80;1.00;;;;;;5052890;28;20373;-73
2022/07/19 02:38:30;;;;;;;15.55;11.20;;;15.70;1.00;;;;;;5052740;28;20032;-73
2022/07/19 02:40:56;;;;;;;14.25;11.02;;;16.00;1.00;;;;;;5052756;28;20080;-73
2022/07/19 02:43:21;;;;;;;15.63;11.35;;;16.10;1.00;;;;;;5052702;28;20369;-74
2022/07/19 02:45:47;;;;;;;12.77;11.35;;;16.00;1.00;;;;;;5052691;28;20058;-73
2022/07/19 02:48:12;;;;;;;13.32;11.27;;;16.10;1.00;;;;;;5051887;28;20025;-74
2022/07/19 02:50:38;;;;;;;13.02;10.88;;;15.90;1.00;;;;;;5052652;28;20027;-74
2022/07/19 02:53:04;;;;;;;13.52;10.68;;;16.00;1.00;;;;;;5052582;28;20017;-73
2022/07/19 02:55:31;;;;;;;15.05;11.27;;;16.10;1.00;;;;;;5052648;28;20060;-73
2022/07/19 02:57:56;;;;;;;12.40;10.90;;;16.00;1.00;;;;;;5052779;28;20021;-73
2022/07/19 03:00:22;;;;;;;13.88;10.77;;;16.10;1.00;;;;;;5052384;28;20032;-73
2022/07/19 03:02:47;;;;;;;12.13;10.20;;;15.90;1.00;;;;;;5052406;28;20412;-73
2022/07/19 03:05:13;;;;;;;12.65;10.30;;;15.80;1.00;;;;;;5052403;28;20044;-73
2022/07/19 03:07:38;;;;;;;14.23;10.68;;;15.80;1.00;;;;;;5052646;28;20107;-73
2022/07/19 03:10:05;;;;;;;13.65;11.63;;;15.80;1.00;;;;;;5052283;28;20472;-73
2022/07/19 03:12:30;;;;;;;13.20;11.80;;;15.80;1.00;;;;;;5060623;28;20559;-73
2022/07/19 03:14:56;;;;;;;12.45;10.15;;;15.80;1.00;;;;;;5057887;28;20025;-73
2022/07/19 03:17:22;;;;;;;13.85;11.30;;;15.60;1.00;;;;;;5052254;28;20017;-74
2022/07/19 03:19:47;;;;;;;16.73;11.40;;;15.70;1.00;;;;;;5052187;28;20067;-73
2022/07/19 03:22:13;;;;;;;13.45;10.85;;;15.70;1.00;;;;;;5052103;28;20021;-73
2022/07/19 03:24:39;;;;;;;15.02;12.00;;;15.80;1.00;;;;;;5052097;28;20017;-73
2022/07/19 03:27:04;;;;;;;11.48;10.15;;;15.80;1.00;;;;;;5052005;28;20053;-73
2022/07/19 03:29:30;;;;;;;13.70;10.98;;;15.60;1.00;;;;;;5051828;28;20035;-73
2022/07/19 03:31:56;;;;;;;12.07;10.82;;;15.50;1.00;;;;;;5051891;28;20031;-74
2022/07/19 03:34:22;;;;;;;12.43;11.13;;;15.50;1.00;;;;;;5051572;28;20048;-73
2022/07/19 03:36:48;;;;;;;16.17;11.63;;;15.80;1.00;;;;;;5052134;28;20017;-73
2022/07/19 03:39:13;;;;;;;14.43;11.40;;;15.80;1.00;;;;;;5051852;28;20021;-73
2022/07/19 03:41:39;;;;;;;13.27;10.98;;;15.70;1.00;;;;;;5052098;28;20103;-73
2022/07/19 03:44:05;;;;;;;12.88;10.88;;;15.70;1.00;;;;;;5051881;28;20396;-73
2022/07/19 03:46:30;;;;;;;15.23;11.25;;;15.60;1.00;;;;;;5043706;28;20100;-73
2022/07/19 03:48:56;;;;;;;14.23;11.70;;;15.70;1.00;;;;;;5046275;28;20029;-73
2022/07/19 03:51:23;;;;;;;13.55;10.60;;;15.60;1.00;;;;;;5052221;28;20081;-73
2022/07/19 03:53:53;;;;;;;12.10;10.38;;;15.70;1.00;;;;;;5051867;28;20018;-73
2022/07/19 03:56:20;;;;;;;;;;;15.90;1.00;;;;;;5052321;28;20469;-74
2022/07/19 03:58:46;;;;;;;14.85;10.20;;;15.80;1.00;;;;;;5046605;28;19980;-73
2022/07/19 04:01:12;;;;;;;14.15;10.98;;;15.70;1.00;;;;;;5049166;28;20603;-73
2022/07/19 04:03:38;;;;;;;16.05;10.60;;;15.80;1.00;;;;;;5055698;28;20096;-73
2022/07/19 04:06:09;;;;;;;13.85;10.82;;;16.00;1.00;;;;;;5055612;28;20021;-73
2022/07/19 04:08:35;;;;;;;13.15;11.27;;;16.00;1.00;;;;;;5055522;28;20035;-73
2022/07/19 04:11:01;;;;;;;14.73;11.25;;;16.20;1.00;;;;;;5055741;28;20481;-73
2022/07/19 04:13:27;;;;;;;12.05;10.38;;;16.60;1.00;;;;;;5054196;28;20116;-73
2022/07/19 04:15:52;;;;;;;13.45;10.52;;;17.00;1.00;;;;;;5055538;28;20013;-73
2022/07/19 04:18:18;;;;;;;14.50;11.23;;;17.30;1.00;;;;;;5055415;28;20021;-73
2022/07/19 04:20:44;;;;;;;13.35;10.82;;;17.60;1.00;;;;;;5055418;28;20025;-73
2022/07/19 04:23:10;;;;;;;12.50;10.20;;;17.90;1.00;;;;;;5055421;28;20033;-73
2022/07/19 04:25:35;;;;;;;13.93;10.98;;;18.10;1.00;;;;;;5055253;28;20044;-73
2022/07/19 04:28:02;;;;;;;12.35;10.57;;;18.30;1.00;;;;;;5054063;28;20051;-73
2022/07/19 04:30:28;;;;;;;12.60;10.52;;;18.00;1.00;;;;;;5054775;28;20021;-74
2022/07/19 04:32:54;;;;;;;15.18;10.95;;;17.70;1.00;;;;;;5054722;28;20032;-73
2022/07/19 04:35:19;;;;;;;13.20;10.23;;;17.80;1.00;;;;;;5055241;28;20032;-73
2022/07/19 04:37:45;;;;;;;13.30;10.32;;;18.10;1.00;;;;;;5055027;28;20017;-73
2022/07/19 04:40:11;;;;;;;13.10;10.32;;;18.70;1.00;;;;;;5054443;28;20029;-73
2022/07/19 04:42:38;;;;;;;12.57;10.63;;;19.20;1.00;;;;;;5054828;28;20025;-73
2022/07/19 04:45:04;;;;;;;13.50;11.02;;;19.90;99.90;;;;;;5036960;28;20064;-74
2022/07/19 04:47:30;;;;;;;16.77;10.18;;;20.70;99.90;;;;;;5054686;28;20075;-73
2022/07/19 04:49:55;;;;;;;11.75;9.90;;;21.00;99.90;;;;;;5053235;28;20060;-73
2022/07/19 04:52:21;;;;;;;11.52;9.15;;;20.20;99.90;;;;;;5034648;28;20068;-73
2022/07/19 04:54:48;;;;;;;11.25;9.60;;;20.20;99.90;;;;;;5035348;28;20060;-74
2022/07/19 04:57:14;;;;;;;13.40;9.55;;;20.60;99.90;;;;;;5053388;28;20100;-73
2022/07/19 04:59:40;;;;;;;11.63;9.85;;;21.40;99.90;;;;;;5054611;28;20053;-73
2022/07/19 05:02:06;;;;;;;11.57;9.75;;;21.90;99.90;;;;;;5054786;28;20033;-73
2022/07/19 05:04:31;;;;;;;13.85;9.65;;;23.00;99.90;;;;;;5054637;28;20551;-74
2022/07/19 05:06:57;;;;;;;13.93;9.10;;;23.80;99.90;;;;;;5054616;28;20048;-73
2022/07/19 05:09:27;;;;;;;7.97;5.20;;;24.40;99.90;;;;;;5054005;28;20392;-73
2022/07/19 05:11:53;;;;;;;9.25;6.80;;;25.00;99.90;;;;;;5054369;28;20082;-74
2022/07/19 05:14:20;;;;;;;8.88;7.97;;;25.70;99.90;;;;;;5054804;28;20037;-74
2022/07/19 05:16:46;;;;;;;12.07;7.18;;;26.10;99.90;;;;;;5054565;28;20166;-74
2022/07/19 05:19:12;;;;;;;8.52;6.68;;;26.40;99.90;;;;;;5054424;28;20025;-74
2022/07/19 05:21:37;;;;;;;11.48;8.52;;;27.10;99.90;;;;;;5053003;28;20360;-73
2022/07/19 05:24:03;;;;;;;10.10;7.50;;;27.50;99.90;;;;;;5054229;28;20021;-74
2022/07/19 05:26:30;;;;;;;10.35;7.10;;;27.80;99.90;;;;;;5054137;28;20594;-74
2022/07/19 05:28:56;;;;;;;9.45;7.32;;;28.90;99.90;;;;;;5054400;28;20376;-74
2022/07/19 05:31:21;;;;;;;10.60;8.23;;;29.50;99.90;;;;;;5054100;28;20029;-74
2022/07/19 05:33:47;;;;;;;10.35;7.35;;;29.90;99.90;;;;;;5053715;28;20041;-73
2022/07/19 05:36:12;;;;;;;11.63;7.50;;;29.60;99.90;;;;;;5053978;28;20017;-74
2022/07/19 05:38:38;;;;;;;8.57;7.13;;;29.90;99.90;;;;;;5053921;28;20464;-74
2022/07/19 05:41:05;;;;;;;10.98;7.63;;;31.40;99.90;;;;;;5053928;28;20047;-74
2022/07/19 05:43:31;;;;;;;7.60;6.35;;;32.00;99.90;;;;;;5054026;28;20029;-74
2022/07/19 05:45:56;;;;;;;9.70;7.90;;;32.70;99.90;;;;;;5053956;28;20029;-74
2022/07/19 05:48:22;;;;;;;10.98;6.90;;;32.50;99.90;;;;;;5053889;28;20392;-74
2022/07/19 05:50:48;;;;;;;12.57;7.65;;;33.00;99.90;;;;;;5053810;28;20357;-74
2022/07/19 05:53:13;;;;;;;10.07;7.10;;;32.70;99.90;;;;;;5053666;28;20021;-74
2022/07/19 05:55:39;;;;;;;7.82;7.03;;;32.70;99.90;;;;;;5053716;28;20045;-74
2022/07/19 05:58:04;;;;;;;8.65;6.85;;;33.20;99.90;;;;;;5039515;28;20025;-74
2022/07/19 06:00:30;;;;;;;8.02;7.22;;;34.50;99.90;;;;;;5053499;28;20470;-74
2022/07/19 06:02:55;;;;;;;10.27;7.13;;;34.00;99.90;;;;;;5053616;28;20388;-75
2022/07/19 06:05:21;;;;;;;8.80;6.75;;;34.50;99.90;;;;;;5053416;28;20031;-74
2022/07/19 06:07:47;;;;;;;8.10;7.00;;;35.40;99.90;;;;;;5053345;28;20024;-74
2022/07/19 06:10:12;;;;;;;9.82;7.10;;;37.10;99.90;;;;;;5053097;28;20044;-74
2022/07/19 06:12:38;;;;;;;9.07;6.90;;;37.90;99.90;;;;;;5053360;28;20021;-74
2022/07/19 06:15:04;;;;;;;8.23;7.07;;;37.90;99.90;;;;;;5053310;28;20078;-74
2022/07/19 06:17:30;;;;;;;8.80;6.80;;;36.90;99.90;;;;;;5053208;28;20070;-74
2022/07/19 06:19:55;;;;;;;7.75;6.80;;;37.20;99.90;;;;;;5053116;28;20029;-73
2022/07/19 06:22:21;;;;;;;8.60;6.80;;;36.90;99.90;;;;;;5052052;28;20183;-74
2022/07/19 06:24:46;;;;;;;7.78;6.53;;;38.10;99.90;;;;;;5053155;28;20021;-74
2022/07/19 06:27:12;;;;;;;7.43;6.38;;;39.80;99.90;;;;;;5053053;28;20029;-74
2022/07/19 06:29:37;;;;;;;7.90;6.85;;;39.00;99.90;;;;;;5053086;28;20033;-74
2022/07/19 06:32:03;;;;;;;8.15;6.47;;;39.50;99.90;;;;;;5053023;28;20025;-74
2022/07/19 06:34:29;;;;;;;7.43;6.70;;;38.10;99.90;;;;;;5052697;28;20151;-73
2022/07/19 06:36:54;;;;;;;7.00;6.35;;;37.70;99.90;;;;;;5052800;28;20493;-74
2022/07/19 06:39:20;;;;;;;9.35;6.50;;;38.30;99.90;;;;;;5052738;28;20017;-74
2022/07/19 06:41:47;;;;;;;8.43;5.95;;;37.80;99.90;;;;;;5052743;28;20362;-73
2022/07/19 06:44:13;;;;;;;9.70;6.55;;;39.90;99.90;;;;;;5053103;28;20372;-74
2022/07/19 06:46:38;;;;;;;8.48;6.30;;;39.70;99.90;;;;;;5045368;28;20025;-73
2022/07/19 06:49:04;;;;;;;8.20;6.20;;;40.70;99.90;;;;;;5067429;28;20527;-74
2022/07/19 06:51:30;;;;;;;7.85;6.13;;;40.20;99.90;;;;;;5050866;28;20021;-74
2022/07/19 06:53:55;;;;;;;11.80;5.72;;;41.70;99.90;;;;;;5052349;28;20036;-74
2022/07/19 06:56:21;;;;;;;9.25;5.57;;;42.90;99.90;;;;;;5053401;28;20040;-74
2022/07/19 06:58:46;;;;;;;6.75;6.15;;;43.40;99.90;;;;;;5057568;28;20025;-74
2022/07/19 07:01:12;;;;;;;10.27;6.65;;;41.60;99.90;;;;;;5050718;28;20025;-74
2022/07/19 07:03:38;;;;;;;6.75;5.80;;;40.20;99.90;;;;;;5037757;28;20036;-74
2022/07/19 07:06:03;;;;;;;7.88;5.55;;;41.50;99.90;;;;;;5059581;28;20517;-75
2022/07/19 07:08:29;;;;;;;8.80;5.28;;;43.30;99.90;;;;;;5046836;28;20046;-74
2022/07/19 07:10:55;;;;;;;5.65;5.03;;;41.90;99.90;;;;;;5016608;28;51734;-74
2022/07/19 07:13:20;;;;;;;5.97;4.90;;;43.00;99.90;;;;;;5034877;28;20028;-74
2022/07/19 07:15:46;;;;;;;5.95;4.85;;;44.90;99.90;;;;;;5052047;28;20099;-74
2022/07/19 07:18:11;;;;;;;4.97;4.47;;;46.00;99.90;;;;;;5028593;28;20100;-74
2022/07/19 07:20:37;;;;;;;4.90;4.20;;;45.80;99.90;;;;;;5043290;28;20342;-74
2022/07/19 07:23:03;;;;;;;6.93;4.90;;;46.20;99.90;;;;;;5031652;28;20025;-74
2022/07/19 07:25:29;;;;;;;5.47;4.85;;;46.70;99.90;;;;;;5046782;28;20040;-74
2022/07/19 07:27:54;;;;;;;5.45;4.70;;;47.10;99.90;;;;;;5031979;28;20025;-74
2022/07/19 07:30:20;;;;;;;5.32;4.82;;;46.50;99.90;;;;;;5033000;28;20025;-74
2022/07/19 07:32:45;;;;;;;6.57;4.60;;;44.70;99.90;;;;;;5043909;28;20056;-74
2022/07/19 07:35:11;;;;;;;6.00;4.55;;;46.20;99.90;;;;;;5023494;28;20092;-74
2022/07/19 07:37:37;;;;;;;7.15;4.93;;;44.10;99.90;;;;;;5031856;28;20481;-74
2022/07/19 07:40:03;;;;;;;5.55;4.25;;;46.20;99.90;;;;;;5032042;28;20025;-74
2022/07/19 07:42:31;;;;;;;7.03;3.83;;;47.30;99.90;;;;;;5032034;28;20171;-75
2022/07/19 07:45:00;;;;;;;5.88;4.47;;;48.40;99.90;;;;;;5045399;28;20025;-74
2022/07/19 07:47:25;;;;;;;6.20;4.15;;;48.20;99.90;;;;;;5037618;28;20017;-74
2022/07/19 07:49:51;;;;;;;4.53;4.10;;;48.00;99.90;;;;;;5037780;28;20063;-75
2022/07/19 07:52:17;;;;;;;7.43;3.88;;;47.90;99.90;;;;;;5044623;28;20029;-74
2022/07/19 07:54:43;;;;;;;3.97;3.58;;;48.60;99.90;;;;;;5041879;28;20458;-74
2022/07/19 07:57:08;;;;;;;5.18;3.58;;;47.00;99.90;;;;;;5045868;28;20024;-74
2022/07/19 07:59:34;;;;;;;4.68;4.28;;;49.30;99.90;;;;;;5037775;28;20449;-74
2022/07/19 08:02:00;;;;;;;4.30;3.90;;;45.50;99.90;;;;;;5041116;28;20026;-74
2022/07/19 08:04:28;;;;;;;3.35;3.05;;;46.80;99.90;;;;;;5037255;28;20027;-74
2022/07/19 08:06:54;;;;;;;3.78;3.30;;;47.40;99.90;;;;;;5051882;28;20025;-75
2022/07/19 08:09:19;;;;;;;5.70;3.72;;;48.20;99.90;;;;;;5035903;28;20091;-75
2022/07/19 08:11:45;;;;;;;6.38;3.60;;;47.90;99.90;;;;;;5013160;28;20024;-75
2022/07/19 08:14:10;;;;;;;4.50;3.58;;;47.70;99.90;;;;;;5024119;28;20018;-75
2022/07/19 08:16:36;;;;;;;4.47;3.30;;;47.60;99.90;;;;;;5011964;28;20417;-75
2022/07/19 08:19:03;;;;;;;4.70;3.25;;;48.80;99.90;;;;;;5043025;28;20029;-74
2022/07/19 08:21:29;;;;;;;5.20;3.20;;;48.60;99.90;;;;;;5051575;28;20024;-75
2022/07/19 08:23:54;;;;;;;3.92;2.80;;;47.60;99.90;;;;;;5046944;28;20013;-75
2022/07/19 08:26:20;;;;;;;5.80;3.17;;;50.00;99.90;;;;;;5030963;28;20022;-75
2022/07/19 08:28:47;;;;;;;5.28;3.13;;;49.80;99.90;;;;;;5031326;28;20060;-75
2022/07/19 08:31:13;;;;;;;6.32;2.92;;;48.80;99.90;;;;;;5031856;28;20462;-75
2022/07/19 08:33:40;;;;;;;3.42;2.65;;;47.40;99.90;;;;;;5031298;28;20054;-75
2022/07/19 08:36:06;;;;;;;4.75;2.80;;;48.60;99.90;;;;;;5031640;28;20037;-75
2022/07/19 08:38:32;;;;;;;3.03;2.70;;;46.70;99.90;;;;;;5031650;28;20057;-75
2022/07/19 08:41:01;;;;;;;6.88;2.83;;;48.30;99.90;;;;;;5031543;28;20064;-75
2022/07/19 08:43:27;;;;;;;6.72;2.60;;;47.30;99.90;;;;;;5031553;28;20029;-75
2022/07/19 08:45:53;;;;;;;3.75;2.72;;;48.30;99.90;;;;;;5041101;28;20033;-75
2022/07/19 08:48:20;;;;;;;2.92;2.70;;;49.40;99.90;;;;;;5054951;28;20048;-75
2022/07/19 08:50:47;;;;;;;5.10;2.75;;;48.60;99.90;;;;;;5055053;28;20107;-75
2022/07/19 08:53:14;;;;;;;2.80;2.55;;;49.50;99.90;;;;;;5041435;28;20025;-75
2022/07/19 08:55:40;;;;;;;6.35;2.53;;;49.20;99.90;;;;;;5027068;28;20040;-75
2022/07/19 08:58:06;;;;;;;9.90;2.90;;;47.50;99.90;;;;;;5042946;28;20094;-75
2022/07/19 09:00:33;;;;;;;4.40;2.30;;;45.90;99.90;;;;;;5048776;28;20380;-75
2022/07/19 09:03:03;;;;;;;4.10;2.67;;;49.00;99.90;;;;;;5044792;28;20033;-75
2022/07/19 09:05:30;;;;;;;2.60;2.40;;;50.70;99.90;;;;;;5041195;28;20058;-76
2022/07/19 09:08:03;;;;;;;2.88;2.13;;;51.40;99.90;;;;;;5045755;28;20481;-76
2022/07/19 09:10:29;;;;;;;3.05;1.92;;;51.90;99.90;;;;;;5050403;28;20029;-76
2022/07/19 09:13:08;;;;;;;1.80;1.70;;;52.00;99.90;;;;;;5046722;28;20025;-75
2022/07/19 09:15:49;;;;;;;2.20;1.92;;;51.70;99.90;;;;;;5044655;28;20158;-76
2022/07/19 09:18:24;;;;;;;2.40;2.20;;;49.60;99.90;;;;;;5044626;28;20072;-76
2022/07/19 09:20:52;;;;;;;2.13;1.92;;;49.10;99.90;;;;;;5040223;28;20017;-75
2022/07/19 09:23:18;;;;;;;3.80;2.17;;;50.50;99.90;;;;;;5043596;28;20036;-76
2022/07/19 09:25:50;;;;;;;3.80;1.80;;;50.40;99.90;;;;;;5048225;28;20021;-75
2022/07/19 09:28:18;;;;;;;3.10;2.20;;;52.10;99.90;;;;;;5042598;28;20025;-75
2022/07/19 09:30:49;;;;;;;3.15;2.10;;;48.80;99.90;;;;;;5040213;28;20060;-75
2022/07/19 09:33:17;;;;;;;3.40;2.20;;;49.80;99.90;;;;;;5046594;28;20105;-75
2022/07/19 09:35:44;;;;;;;;;;;49.70;99.90;;;;;;5048209;28;20025;-75
2022/07/19 09:38:24;;;;;;;3.13;2.10;;;50.20;99.90;;;;;;5034573;28;19905;-75
2022/07/19 09:40:52;;;;;;;2.90;2.17;;;51.10;99.90;;;;;;5034050;28;20033;-75
2022/07/19 09:43:19;;;;;;;3.30;2.20;;;52.20;99.90;;;;;;5037562;28;20086;-75
2022/07/19 09:45:45;;;;;;;2.90;2.00;;;52.70;99.90;;;;;;5047891;28;20013;-75
2022/07/19 09:48:11;;;;;;;2.30;2.10;;;52.30;99.90;;;;;;5033527;28;20025;-75
2022/07/19 09:50:37;;;;;;;4.35;2.15;;;52.00;99.90;;;;;;5033669;28;20025;-75
2022/07/19 09:53:05;;;;;;;2.90;2.22;;;52.50;99.90;;;;;;5036229;28;20036;-75
2022/07/19 09:55:31;;;;;;;;;;;53.30;99.90;;;;;;5033639;28;20026;-76
2022/07/19 09:57:58;;;;;;;5.88;2.33;;;51.60;99.90;;;;;;5033102;28;19980;-76
2022/07/19 10:00:25;;;;;;;2.30;2.10;;;51.10;99.90;;;;;;5033238;28;20448;-76
2022/07/19 10:02:54;;;;;;;4.53;2.22;;;51.00;99.90;;;;;;5033517;28;20401;-75
2022/07/19 10:05:20;;;;;;;3.70;2.17;;;51.30;99.90;;;;;;5033202;28;20013;-76
2022/07/19 10:07:47;;;;;;;2.38;2.17;;;50.60;99.90;;;;;;5033360;28;20547;-75
2022/07/19 10:10:15;;;;;;;4.30;2.38;;;51.30;99.90;;;;;;5033149;28;20037;-75
2022/07/19 10:12:43;;;;;;;3.72;2.35;;;50.40;99.90;;;;;;5032769;28;20026;-75
2022/07/19 10:15:10;;;;;;;2.92;2.00;;;49.00;99.90;;;;;;5032728;28;20030;-75
2022/07/19 10:17:54;;;;;;;5.22;2.80;;;50.60;99.90;;;;;;5033375;28;20025;-75
2022/07/19 10:20:24;;;;;;;5.22;2.38;;;50.10;99.90;;;;;;5033272;28;20021;-76
2022/07/19 10:22:50;;;;;;;2.25;2.05;;;48.10;99.90;;;;;;5033364;28;20028;-75
2022/07/19 10:25:17;;;;;;;4.40;2.28;;;49.40;99.90;;;;;;5033254;28;20018;-75
2022/07/19 10:27:54;;;;;;;3.75;2.50;;;48.30;99.90;;;;;;5033253;28;20071;-75
2022/07/19 10:30:23;;;;;;;3.03;2.40;;;50.10;99.90;;;;;;5021218;28;20022;-75
2022/07/19 10:32:51;;;;;;;4.13;2.40;;;51.80;99.90;;;;;;5032931;28;20029;-75
2022/07/19 10:35:18;;;;;;;2.70;2.50;;;49.80;99.90;;;;;;5032091;28;20128;-75
2022/07/19 10:37:46;;;;;;;2.70;2.05;;;50.10;99.90;;;;;;5032564;28;20026;-75
2022/07/19 10:40:12;;;;;;;3.38;2.15;;;51.00;99.90;;;;;;5034463;28;20934;-75
2022/07/19 10:43:18;;;;;;;4.88;2.38;;;51.70;99.90;;;;;;5032282;28;20029;-75
2022/07/19 10:46:03;;;;;;;4.45;2.42;;;52.90;99.90;;;;;;5030536;28;20065;-75
2022/07/19 10:48:35;;;;;;;6.13;2.53;;;51.00;99.90;;;;;;5033443;28;20032;-75
2022/07/19 10:51:01;;;;;;;3.75;2.22;;;49.30;99.90;;;;;;5045096;28;20017;-75
2022/07/19 10:53:42;;;;;;;2.58;1.92;;;49.80;99.90;;;;;;5038834;28;20020;-75
2022/07/19 10:56:28;;;;;;;5.93;2.38;;;47.90;99.90;;;;;;5039897;28;20026;-75
2022/07/19 10:58:59;;;;;;;3.85;2.30;;;48.60;99.90;;;;;;5012837;28;20022;-75
2022/07/19 11:01:28;;;;;;;4.80;2.40;;;48.60;99.90;;;;;;5012579;28;20022;-74
2022/07/19 11:04:14;;;;;;;2.75;2.00;;;46.60;99.90;;;;;;5027796;28;20158;-75
2022/07/19 11:06:39;;;;;;;3.38;1.90;;;47.90;99.90;;;;;;5012228;28;20060;-75
2022/07/19 11:09:05;;;;;;;2.92;2.15;;;48.10;99.90;;;;;;5011918;28;20053;-75
2022/07/19 11:11:31;;;;;;;2.67;2.30;;;45.20;99.90;;;;;;5012369;28;20022;-75
2022/07/19 11:13:58;;;;;;;2.17;1.98;;;45.30;99.90;;;;;;5049264;28;20036;-75
2022/07/19 11:16:25;;;;;;;4.60;2.43;;;46.00;99.90;;;;;;5050454;28;20104;-75
2022/07/19 11:18:51;;;;;;;4.82;2.28;;;45.90;99.90;;;;;;5051249;28;20060;-75
2022/07/19 11:21:17;;;;;;;3.83;2.25;;;45.10;99.90;;;;;;5031659;28;20033;-75
2022/07/19 11:23:44;;;;;;;5.13;2.47;;;43.70;99.90;;;;;;5031250;28;20022;-75
2022/07/19 11:26:20;;;;;;;3.80;2.28;;;42.80;99.90;;;;;;5030001;28;20108;-75
2022/07/19 11:28:47;;;;;;;2.10;1.90;;;42.10;99.90;;;;;;5031443;28;20018;-75
2022/07/19 11:31:18;;;;;;;3.53;2.20;;;42.20;99.90;;;;;;5030623;28;20053;-75
2022/07/19 11:33:46;;;;;;;3.10;1.95;;;41.10;99.90;;;;;;5031515;28;20427;-75
2022/07/19 11:36:15;;;;;;;2.50;2.00;;;40.30;99.90;;;;;;5031880;28;20481;-75
2022/07/19 11:38:42;;;;;;;2.70;2.25;;;40.30;99.90;;;;;;5032507;28;20018;-74
2022/07/19 11:41:18;;;;;;;3.60;2.13;;;39.00;99.90;;;;;;5032204;28;20025;-75
2022/07/19 11:43:50;;;;;;;5.00;2.53;;;39.60;99.90;;;;;;5032193;28;20022;-75
2022/07/19 11:46:17;;;;;;;2.03;1.90;;;40.20;99.90;;;;;;5025376;28;20105;-75
2022/07/19 11:48:42;;;;;;;4.32;2.03;;;38.70;99.90;;;;;;5051234;28;20021;-75
2022/07/19 11:51:10;;;;;;;5.38;2.00;;;39.40;99.90;;;;;;5045270;28;20027;-75
2022/07/19 11:53:38;;;;;;;2.13;2.00;;;39.50;99.90;;;;;;5031703;28;20029;-74
2022/07/19 11:56:05;;;;;;;4.65;2.08;;;39.00;99.90;;;;;;5031590;28;20017;-74
2022/07/19 11:58:31;;;;;;;3.80;2.05;;;38.10;99.90;;;;;;5031853;28;20038;-74
2022/07/19 12:01:05;;;;;;;3.03;2.10;;;39.00;99.90;;;;;;5031912;28;20080;-74
2022/07/19 12:03:31;;;;;;;2.92;2.20;;;39.30;99.90;;;;;;5018262;28;20028;-75
2022/07/19 12:06:04;;;;;;;4.38;2.00;;;39.20;99.90;;;;;;5038995;28;20099;-75
2022/07/19 12:08:43;;;;;;;3.55;2.00;;;39.30;99.90;;;;;;5037595;28;20022;-74
2022/07/19 12:11:27;;;;;;;2.45;1.98;;;39.30;99.90;;;;;;5044041;28;20100;-75
2022/07/19 12:13:54;;;;;;;6.80;2.08;;;38.50;99.90;;;;;;5042678;28;20026;-75
2022/07/19 12:16:22;;;;;;;3.38;1.92;;;38.30;99.90;;;;;;5042896;28;20018;-75
2022/07/19 12:18:57;;;;;;;4.83;2.30;;;38.20;99.90;;;;;;5031902;28;20400;-75
2022/07/19 12:21:27;;;;;;;5.00;2.15;;;37.80;99.90;;;;;;5055012;28;20277;-73
2022/07/19 12:24:11;;;;;;;3.22;2.30;;;38.00;99.90;;;;;;5055249;28;20028;-73
2022/07/19 12:26:38;;;;;;;4.57;2.58;;;38.90;99.90;;;;;;5055361;28;20025;-73
2022/07/19 12:29:20;;;;;;;3.47;2.00;;;38.70;99.90;;;;;;5055232;28;20013;-75
2022/07/19 12:31:47;;;;;;;3.38;2.40;;;39.20;99.90;;;;;;5047593;28;20112;-75
2022/07/19 12:34:14;;;;;;;4.63;2.20;;;39.10;99.90;;;;;;5046579;28;20061;-74
2022/07/19 12:36:39;;;;;;;2.67;2.20;;;39.00;99.90;;;;;;5055003;28;20397;-75
2022/07/19 12:39:25;;;;;;;4.63;2.35;;;39.30;99.90;;;;;;5050590;28;20071;-75
2022/07/19 12:41:56;;;;;;;5.35;2.70;;;38.40;99.90;;;;;;5023169;28;20032;-75